Benicassim, Spain
Current Conditions -  °F | °C
As of 8:00 PM on Thursday 23 Oct 2014 (Local Time) from LEBT Reporting Station
Clear Clear  
Wind Chill: 66°   Ceiling: Unl
Heat Index: 66°   Visibility: 6mi
Dew Point: 48°   Wind: 1mph
Humidity: 52%   Direction: NA
Pressure: 30.03"   Gusts: NA
Location:  40.05°N, 0.07°E
Report Text: LEBT 231800Z AUTO VRB01KT CAVOK 19/09 Q1017
Loading
Personal Weather Stations






























Interactive Weather Map
Tropical Storm Tracking
New forecast layout! Learn more

10-Day Weather Forecast

Advertisements
Track Severe Weather on mobile